sensor_id;sensor_type;location;lat;lon;timestamp;temperature;humidity
10885;DHT22;5495;53.252;10.390;2022-09-25T00:01:16;13.80;99.90
10885;DHT22;5495;53.252;10.390;2022-09-25T00:03:43;13.90;99.90
10885;DHT22;5495;53.252;10.390;2022-09-25T00:06:14;13.90;99.90
10885;DHT22;5495;53.252;10.390;2022-09-25T00:08:48;13.90;99.90
10885;DHT22;5495;53.252;10.390;2022-09-25T00:11:18;13.90;99.90
10885;DHT22;5495;53.252;10.390;2022-09-25T00:13:46;13.90;99.90
10885;DHT22;5495;53.252;10.390;2022-09-25T00:16:16;13.90;99.90
10885;DHT22;5495;53.252;10.390;2022-09-25T00:18:45;13.90;99.90
10885;DHT22;5495;53.252;10.390;2022-09-25T00:21:32;13.90;99.90
10885;DHT22;5495;53.252;10.390;2022-09-25T00:24:03;13.90;99.90
10885;DHT22;5495;53.252;10.390;2022-09-25T00:26:32;13.90;99.90
10885;DHT22;5495;53.252;10.390;2022-09-25T00:29:00;13.90;99.90
10885;DHT22;5495;53.252;10.390;2022-09-25T00:31:28;13.90;99.90
10885;DHT22;5495;53.252;10.390;2022-09-25T00:33:58;13.90;99.90
10885;DHT22;5495;53.252;10.390;2022-09-25T00:36:26;13.90;99.90
10885;DHT22;5495;53.252;10.390;2022-09-25T00:38:55;13.90;99.90
10885;DHT22;5495;53.252;10.390;2022-09-25T00:41:24;13.90;99.90
10885;DHT22;5495;53.252;10.390;2022-09-25T00:43:54;13.90;99.90
10885;DHT22;5495;53.252;10.390;2022-09-25T00:46:23;13.80;99.90
10885;DHT22;5495;53.252;10.390;2022-09-25T00:48:58;13.90;99.90
10885;DHT22;5495;53.252;10.390;2022-09-25T00:51:29;13.90;99.90
10885;DHT22;5495;53.252;10.390;2022-09-25T00:54:02;13.90;99.90
10885;DHT22;5495;53.252;10.390;2022-09-25T00:56:34;13.90;99.90
10885;DHT22;5495;53.252;10.390;2022-09-25T00:59:05;13.90;99.90
10885;DHT22;5495;53.252;10.390;2022-09-25T01:01:35;13.90;99.90
10885;DHT22;5495;53.252;10.390;2022-09-25T01:04:02;13.80;99.90
10885;DHT22;5495;53.252;10.390;2022-09-25T01:06:30;13.80;99.90
10885;DHT22;5495;53.252;10.390;2022-09-25T01:09:00;13.80;99.90
10885;DHT22;5495;53.252;10.390;2022-09-25T01:11:28;13.80;99.90
10885;DHT22;5495;53.252;10.390;2022-09-25T01:13:57;13.80;99.90
10885;DHT22;5495;53.252;10.390;2022-09-25T01:16:30;13.90;99.90
10885;DHT22;5495;53.252;10.390;2022-09-25T01:19:11;13.80;99.90
10885;DHT22;5495;53.252;10.390;2022-09-25T01:21:43;13.80;99.90
10885;DHT22;5495;53.252;10.390;2022-09-25T01:24:42;13.80;99.90
10885;DHT22;5495;53.252;10.390;2022-09-25T01:30:30;13.90;99.90
10885;DHT22;5495;53.252;10.390;2022-09-25T01:33:04;13.90;99.90
10885;DHT22;5495;53.252;10.390;2022-09-25T01:35:46;13.90;99.90
10885;DHT22;5495;53.252;10.390;2022-09-25T01:38:23;13.90;99.90
10885;DHT22;5495;53.252;10.390;2022-09-25T01:40:57;13.90;99.90
10885;DHT22;5495;53.252;10.390;2022-09-25T01:43:31;13.90;99.90
10885;DHT22;5495;53.252;10.390;2022-09-25T01:46:07;13.90;99.90
10885;DHT22;5495;53.252;10.390;2022-09-25T01:48:38;13.90;99.90
10885;DHT22;5495;53.252;10.390;2022-09-25T01:51:09;13.90;99.90
10885;DHT22;5495;53.252;10.390;2022-09-25T01:53:43;13.90;99.90
10885;DHT22;5495;53.252;10.390;2022-09-25T01:56:17;13.80;99.90
10885;DHT22;5495;53.252;10.390;2022-09-25T01:58:52;13.90;99.90
10885;DHT22;5495;53.252;10.390;2022-09-25T02:01:26;13.80;99.90
10885;DHT22;5495;53.252;10.390;2022-09-25T02:03:58;13.90;99.90
10885;DHT22;5495;53.252;10.390;2022-09-25T02:06:29;13.80;99.90
10885;DHT22;5495;53.252;10.390;2022-09-25T02:09:02;13.80;99.90
10885;DHT22;5495;53.252;10.390;2022-09-25T02:11:35;13.80;99.90
10885;DHT22;5495;53.252;10.390;2022-09-25T02:14:09;13.80;99.90
10885;DHT22;5495;53.252;10.390;2022-09-25T02:16:42;13.90;99.90
10885;DHT22;5495;53.252;10.390;2022-09-25T02:19:10;13.80;99.90
10885;DHT22;5495;53.252;10.390;2022-09-25T02:22:01;13.90;99.90
10885;DHT22;5495;53.252;10.390;2022-09-25T02:24:36;13.90;99.90
10885;DHT22;5495;53.252;10.390;2022-09-25T02:27:05;13.80;99.90
10885;DHT22;5495;53.252;10.390;2022-09-25T02:29:33;13.80;99.90
10885;DHT22;5495;53.252;10.390;2022-09-25T02:32:06;13.80;99.90
10885;DHT22;5495;53.252;10.390;2022-09-25T02:34:34;13.90;99.90
10885;DHT22;5495;53.252;10.390;2022-09-25T02:37:02;13.90;99.90
10885;DHT22;5495;53.252;10.390;2022-09-25T02:39:30;13.90;99.90
10885;DHT22;5495;53.252;10.390;2022-09-25T02:42:21;13.90;99.90
10885;DHT22;5495;53.252;10.390;2022-09-25T02:45:05;13.90;99.90
10885;DHT22;5495;53.252;10.390;2022-09-25T02:47:41;13.90;99.90
10885;DHT22;5495;53.252;10.390;2022-09-25T02:50:16;13.90;99.90
10885;DHT22;5495;53.252;10.390;2022-09-25T02:52:49;13.90;99.90
10885;DHT22;5495;53.252;10.390;2022-09-25T02:55:23;13.90;99.90
10885;DHT22;5495;53.252;10.390;2022-09-25T02:57:56;13.90;99.90
10885;DHT22;5495;53.252;10.390;2022-09-25T03:00:24;13.90;99.90
10885;DHT22;5495;53.252;10.390;2022-09-25T03:02:59;13.90;99.90
10885;DHT22;5495;53.252;10.390;2022-09-25T03:05:29;13.90;99.90
10885;DHT22;5495;53.252;10.390;2022-09-25T03:07:57;13.90;99.90
10885;DHT22;5495;53.252;10.390;2022-09-25T03:10:42;13.80;99.90
10885;DHT22;5495;53.252;10.390;2022-09-25T03:13:16;13.80;99.90
10885;DHT22;5495;53.252;10.390;2022-09-25T03:15:56;13.90;99.90
10885;DHT22;5495;53.252;10.390;2022-09-25T03:18:28;13.90;99.90
10885;DHT22;5495;53.252;10.390;2022-09-25T03:20:56;13.90;99.90
10885;DHT22;5495;53.252;10.390;2022-09-25T03:23:23;13.90;99.90
10885;DHT22;5495;53.252;10.390;2022-09-25T03:25:52;13.80;99.90
10885;DHT22;5495;53.252;10.390;2022-09-25T03:28:21;11.10;99.90
10885;DHT22;5495;53.252;10.390;2022-09-25T03:30:58;13.90;99.90
10885;DHT22;5495;53.252;10.390;2022-09-25T03:33:29;13.80;99.90
10885;DHT22;5495;53.252;10.390;2022-09-25T03:36:00;13.90;99.90
10885;DHT22;5495;53.252;10.390;2022-09-25T03:38:28;13.80;99.90
10885;DHT22;5495;53.252;10.390;2022-09-25T03:40:56;13.90;99.90
10885;DHT22;5495;53.252;10.390;2022-09-25T03:43:23;13.90;99.90
10885;DHT22;5495;53.252;10.390;2022-09-25T03:45:51;13.90;99.90
10885;DHT22;5495;53.252;10.390;2022-09-25T03:48:18;13.90;99.90
10885;DHT22;5495;53.252;10.390;2022-09-25T03:50:53;13.90;99.90
10885;DHT22;5495;53.252;10.390;2022-09-25T03:53:21;13.90;99.90
10885;DHT22;5495;53.252;10.390;2022-09-25T03:55:50;13.90;99.90
10885;DHT22;5495;53.252;10.390;2022-09-25T03:58:17;13.90;99.90
10885;DHT22;5495;53.252;10.390;2022-09-25T04:00:45;13.80;99.90
10885;DHT22;5495;53.252;10.390;2022-09-25T04:03:13;13.80;99.90
10885;DHT22;5495;53.252;10.390;2022-09-25T04:05:41;13.80;99.90
10885;DHT22;5495;53.252;10.390;2022-09-25T04:08:12;13.80;99.90
10885;DHT22;5495;53.252;10.390;2022-09-25T04:10:40;13.80;99.90
10885;DHT22;5495;53.252;10.390;2022-09-25T04:13:08;13.80;99.90
10885;DHT22;5495;53.252;10.390;2022-09-25T04:15:39;13.80;99.90
10885;DHT22;5495;53.252;10.390;2022-09-25T04:18:07;13.80;99.90
10885;DHT22;5495;53.252;10.390;2022-09-25T04:20:35;13.70;99.90
10885;DHT22;5495;53.252;10.390;2022-09-25T04:23:04;13.70;99.90
10885;DHT22;5495;53.252;10.390;2022-09-25T04:25:33;13.80;99.90
10885;DHT22;5495;53.252;10.390;2022-09-25T04:28:01;13.80;99.90
10885;DHT22;5495;53.252;10.390;2022-09-25T04:30:29;13.70;99.90
10885;DHT22;5495;53.252;10.390;2022-09-25T04:32:56;13.70;99.90
10885;DHT22;5495;53.252;10.390;2022-09-25T04:35:41;13.80;99.90
10885;DHT22;5495;53.252;10.390;2022-09-25T04:38:08;13.80;99.90
10885;DHT22;5495;53.252;10.390;2022-09-25T04:40:39;13.70;99.90
10885;DHT22;5495;53.252;10.390;2022-09-25T04:43:06;13.70;99.90
10885;DHT22;5495;53.252;10.390;2022-09-25T04:45:35;13.70;99.90
10885;DHT22;5495;53.252;10.390;2022-09-25T04:48:03;13.70;99.90
10885;DHT22;5495;53.252;10.390;2022-09-25T04:50:32;13.70;99.90
10885;DHT22;5495;53.252;10.390;2022-09-25T04:52:59;13.70;99.90
10885;DHT22;5495;53.252;10.390;2022-09-25T04:55:27;13.70;99.90
10885;DHT22;5495;53.252;10.390;2022-09-25T04:57:57;13.70;99.90
10885;DHT22;5495;53.252;10.390;2022-09-25T05:00:27;13.70;99.90
10885;DHT22;5495;53.252;10.390;2022-09-25T05:03:04;13.70;99.90
10885;DHT22;5495;53.252;10.390;2022-09-25T05:05:32;13.70;99.90
10885;DHT22;5495;53.252;10.390;2022-09-25T05:08:00;13.70;99.90
10885;DHT22;5495;53.252;10.390;2022-09-25T05:10:32;13.70;99.90
10885;DHT22;5495;53.252;10.390;2022-09-25T05:13:02;13.70;99.90
10885;DHT22;5495;53.252;10.390;2022-09-25T05:15:31;13.70;99.90
10885;DHT22;5495;53.252;10.390;2022-09-25T05:17:59;13.70;99.90
10885;DHT22;5495;53.252;10.390;2022-09-25T05:20:27;13.90;99.90
10885;DHT22;5495;53.252;10.390;2022-09-25T05:22:56;13.70;99.90
10885;DHT22;5495;53.252;10.390;2022-09-25T05:25:24;13.70;99.90
10885;DHT22;5495;53.252;10.390;2022-09-25T05:27:53;13.70;99.90
10885;DHT22;5495;53.252;10.390;2022-09-25T05:30:25;13.70;99.90
10885;DHT22;5495;53.252;10.390;2022-09-25T05:32:53;13.70;99.90
10885;DHT22;5495;53.252;10.390;2022-09-25T05:35:23;13.70;99.90
10885;DHT22;5495;53.252;10.390;2022-09-25T05:37:50;13.70;99.90
10885;DHT22;5495;53.252;10.390;2022-09-25T05:40:20;13.70;99.90
10885;DHT22;5495;53.252;10.390;2022-09-25T05:42:48;13.70;99.90
10885;DHT22;5495;53.252;10.390;2022-09-25T05:45:17;11.30;99.90
10885;DHT22;5495;53.252;10.390;2022-09-25T05:47:46;13.70;99.90
10885;DHT22;5495;53.252;10.390;2022-09-25T05:50:15;13.70;99.90
10885;DHT22;5495;53.252;10.390;2022-09-25T05:52:55;13.70;99.90
10885;DHT22;5495;53.252;10.390;2022-09-25T05:55:23;13.70;99.90
10885;DHT22;5495;53.252;10.390;2022-09-25T05:57:50;13.70;99.90
10885;DHT22;5495;53.252;10.390;2022-09-25T06:00:20;13.70;99.90
10885;DHT22;5495;53.252;10.390;2022-09-25T06:02:52;13.70;99.90
10885;DHT22;5495;53.252;10.390;2022-09-25T06:05:19;13.70;99.90
10885;DHT22;5495;53.252;10.390;2022-09-25T06:07:53;13.70;99.90
10885;DHT22;5495;53.252;10.390;2022-09-25T06:10:21;13.80;99.90
10885;DHT22;5495;53.252;10.390;2022-09-25T06:12:50;13.70;99.90
10885;DHT22;5495;53.252;10.390;2022-09-25T06:15:19;13.80;99.90
10885;DHT22;5495;53.252;10.390;2022-09-25T06:17:48;13.80;99.90
10885;DHT22;5495;53.252;10.390;2022-09-25T06:20:17;13.80;99.90
10885;DHT22;5495;53.252;10.390;2022-09-25T06:22:51;13.80;99.90
10885;DHT22;5495;53.252;10.390;2022-09-25T06:25:19;13.80;99.90
10885;DHT22;5495;53.252;10.390;2022-09-25T06:27:46;13.80;99.90
10885;DHT22;5495;53.252;10.390;2022-09-25T06:30:14;13.80;99.90
10885;DHT22;5495;53.252;10.390;2022-09-25T06:32:42;13.80;99.90
10885;DHT22;5495;53.252;10.390;2022-09-25T06:35:09;13.80;99.90
10885;DHT22;5495;53.252;10.390;2022-09-25T06:37:44;13.70;99.90
10885;DHT22;5495;53.252;10.390;2022-09-25T06:40:12;13.80;99.90
10885;DHT22;5495;53.252;10.390;2022-09-25T06:42:39;13.80;99.90
10885;DHT22;5495;53.252;10.390;2022-09-25T06:45:13;13.80;99.90
10885;DHT22;5495;53.252;10.390;2022-09-25T06:47:40;13.80;99.90
10885;DHT22;5495;53.252;10.390;2022-09-25T06:50:08;13.80;99.90
10885;DHT22;5495;53.252;10.390;2022-09-25T06:52:53;13.80;99.90
10885;DHT22;5495;53.252;10.390;2022-09-25T06:55:24;13.80;99.90
10885;DHT22;5495;53.252;10.390;2022-09-25T06:57:52;13.90;99.90
10885;DHT22;5495;53.252;10.390;2022-09-25T07:00:19;13.90;99.90
10885;DHT22;5495;53.252;10.390;2022-09-25T07:02:47;13.90;99.90
10885;DHT22;5495;53.252;10.390;2022-09-25T07:05:28;13.90;99.90
10885;DHT22;5495;53.252;10.390;2022-09-25T07:07:57;13.90;99.90
10885;DHT22;5495;53.252;10.390;2022-09-25T07:10:24;13.90;99.90
10885;DHT22;5495;53.252;10.390;2022-09-25T07:12:52;14.00;99.90
10885;DHT22;5495;53.252;10.390;2022-09-25T07:15:19;13.90;99.90
10885;DHT22;5495;53.252;10.390;2022-09-25T07:17:47;14.00;99.90
10885;DHT22;5495;53.252;10.390;2022-09-25T07:20:21;14.00;99.90
10885;DHT22;5495;53.252;10.390;2022-09-25T07:22:49;14.10;99.90
10885;DHT22;5495;53.252;10.390;2022-09-25T07:25:20;14.10;99.90
10885;DHT22;5495;53.252;10.390;2022-09-25T07:27:47;14.10;99.90
10885;DHT22;5495;53.252;10.390;2022-09-25T07:30:15;14.10;99.90
10885;DHT22;5495;53.252;10.390;2022-09-25T07:32:43;14.10;99.90
10885;DHT22;5495;53.252;10.390;2022-09-25T07:35:11;14.10;99.90
10885;DHT22;5495;53.252;10.390;2022-09-25T07:37:38;14.10;99.90
10885;DHT22;5495;53.252;10.390;2022-09-25T07:40:07;14.10;99.90
10885;DHT22;5495;53.252;10.390;2022-09-25T07:42:38;14.10;99.90
10885;DHT22;5495;53.252;10.390;2022-09-25T07:45:07;14.10;99.90
10885;DHT22;5495;53.252;10.390;2022-09-25T07:47:34;14.20;99.90
10885;DHT22;5495;53.252;10.390;2022-09-25T07:50:06;14.20;99.90
10885;DHT22;5495;53.252;10.390;2022-09-25T07:52:34;14.20;99.90
10885;DHT22;5495;53.252;10.390;2022-09-25T07:55:01;14.30;99.90
10885;DHT22;5495;53.252;10.390;2022-09-25T07:57:31;14.30;99.90
10885;DHT22;5495;53.252;10.390;2022-09-25T08:00:01;14.30;99.90
10885;DHT22;5495;53.252;10.390;2022-09-25T08:02:29;14.40;99.90
10885;DHT22;5495;53.252;10.390;2022-09-25T08:05:04;14.40;99.90
10885;DHT22;5495;53.252;10.390;2022-09-25T08:07:32;14.40;99.90
10885;DHT22;5495;53.252;10.390;2022-09-25T08:09:59;14.40;99.90
10885;DHT22;5495;53.252;10.390;2022-09-25T08:12:27;14.40;99.90
10885;DHT22;5495;53.252;10.390;2022-09-25T08:14:54;14.30;99.90
10885;DHT22;5495;53.252;10.390;2022-09-25T08:17:23;14.40;99.90
10885;DHT22;5495;53.252;10.390;2022-09-25T08:19:56;14.40;99.90
10885;DHT22;5495;53.252;10.390;2022-09-25T08:22:24;14.40;99.90
10885;DHT22;5495;53.252;10.390;2022-09-25T08:24:58;14.40;99.90
10885;DHT22;5495;53.252;10.390;2022-09-25T08:27:27;14.40;99.90
10885;DHT22;5495;53.252;10.390;2022-09-25T08:29:54;14.50;99.90
10885;DHT22;5495;53.252;10.390;2022-09-25T08:32:25;14.40;99.90
10885;DHT22;5495;53.252;10.390;2022-09-25T08:34:53;14.40;99.90
10885;DHT22;5495;53.252;10.390;2022-09-25T08:37:20;14.50;99.90
10885;DHT22;5495;53.252;10.390;2022-09-25T08:39:48;14.50;99.90
10885;DHT22;5495;53.252;10.390;2022-09-25T08:42:18;14.60;99.90
10885;DHT22;5495;53.252;10.390;2022-09-25T08:44:53;14.60;99.90
10885;DHT22;5495;53.252;10.390;2022-09-25T08:47:36;14.60;99.90
10885;DHT22;5495;53.252;10.390;2022-09-25T08:50:25;14.60;99.90
10885;DHT22;5495;53.252;10.390;2022-09-25T08:53:03;14.60;99.90
10885;DHT22;5495;53.252;10.390;2022-09-25T08:55:33;14.70;99.90
10885;DHT22;5495;53.252;10.390;2022-09-25T08:58:22;14.60;99.90
10885;DHT22;5495;53.252;10.390;2022-09-25T09:01:00;14.60;99.90
10885;DHT22;5495;53.252;10.390;2022-09-25T09:03:31;14.70;99.90
10885;DHT22;5495;53.252;10.390;2022-09-25T09:06:02;14.60;99.90
10885;DHT22;5495;53.252;10.390;2022-09-25T09:08:33;14.70;99.90
10885;DHT22;5495;53.252;10.390;2022-09-25T09:11:05;14.60;99.90
10885;DHT22;5495;53.252;10.390;2022-09-25T09:13:40;14.70;99.90
10885;DHT22;5495;53.252;10.390;2022-09-25T09:16:18;14.70;99.90
10885;DHT22;5495;53.252;10.390;2022-09-25T09:18:52;14.60;99.90
10885;DHT22;5495;53.252;10.390;2022-09-25T09:21:33;14.70;99.90
10885;DHT22;5495;53.252;10.390;2022-09-25T09:24:12;14.70;99.90
10885;DHT22;5495;53.252;10.390;2022-09-25T09:27:04;14.70;99.90
10885;DHT22;5495;53.252;10.390;2022-09-25T09:29:47;14.80;99.90
10885;DHT22;5495;53.252;10.390;2022-09-25T09:32:35;14.80;99.90
10885;DHT22;5495;53.252;10.390;2022-09-25T09:35:19;14.80;99.90
10885;DHT22;5495;53.252;10.390;2022-09-25T09:38:01;14.80;99.90
10885;DHT22;5495;53.252;10.390;2022-09-25T09:40:51;14.80;99.90
10885;DHT22;5495;53.252;10.390;2022-09-25T09:43:32;14.80;99.90
10885;DHT22;5495;53.252;10.390;2022-09-25T09:46:07;14.90;99.90
10885;DHT22;5495;53.252;10.390;2022-09-25T09:48:43;14.80;99.90
10885;DHT22;5495;53.252;10.390;2022-09-25T09:51:22;14.90;99.90
10885;DHT22;5495;53.252;10.390;2022-09-25T09:53:53;14.90;99.90
10885;DHT22;5495;53.252;10.390;2022-09-25T09:56:26;14.90;99.90
10885;DHT22;5495;53.252;10.390;2022-09-25T09:58:56;15.00;99.90
10885;DHT22;5495;53.252;10.390;2022-09-25T10:01:27;15.00;99.90
10885;DHT22;5495;53.252;10.390;2022-09-25T10:04:02;15.00;99.90
10885;DHT22;5495;53.252;10.390;2022-09-25T10:06:34;15.00;99.90
10885;DHT22;5495;53.252;10.390;2022-09-25T10:09:03;15.00;99.90
10885;DHT22;5495;53.252;10.390;2022-09-25T10:11:33;15.00;99.90
10885;DHT22;5495;53.252;10.390;2022-09-25T10:14:03;15.00;99.90
10885;DHT22;5495;53.252;10.390;2022-09-25T10:16:31;16.10;99.90
10885;DHT22;5495;53.252;10.390;2022-09-25T10:19:02;15.00;99.90
10885;DHT22;5495;53.252;10.390;2022-09-25T10:21:38;14.90;99.90
10885;DHT22;5495;53.252;10.390;2022-09-25T10:24:06;14.90;99.90
10885;DHT22;5495;53.252;10.390;2022-09-25T10:26:35;14.90;99.90
10885;DHT22;5495;53.252;10.390;2022-09-25T10:29:05;14.90;99.90
10885;DHT22;5495;53.252;10.390;2022-09-25T10:31:57;14.90;99.90
10885;DHT22;5495;53.252;10.390;2022-09-25T10:34:26;14.90;99.90
10885;DHT22;5495;53.252;10.390;2022-09-25T10:36:56;14.90;99.90
10885;DHT22;5495;53.252;10.390;2022-09-25T10:39:27;14.90;99.90
10885;DHT22;5495;53.252;10.390;2022-09-25T10:41:56;14.90;99.90
10885;DHT22;5495;53.252;10.390;2022-09-25T10:44:31;14.90;99.90
10885;DHT22;5495;53.252;10.390;2022-09-25T10:47:30;14.90;99.90
10885;DHT22;5495;53.252;10.390;2022-09-25T10:50:19;15.00;99.90
10885;DHT22;5495;53.252;10.390;2022-09-25T10:52:49;15.00;99.90
10885;DHT22;5495;53.252;10.390;2022-09-25T10:55:23;15.00;99.90
10885;DHT22;5495;53.252;10.390;2022-09-25T10:58:05;14.90;99.90
10885;DHT22;5495;53.252;10.390;2022-09-25T11:00:41;14.90;99.90
10885;DHT22;5495;53.252;10.390;2022-09-25T11:03:16;14.80;99.90
10885;DHT22;5495;53.252;10.390;2022-09-25T11:05:49;14.90;99.90
10885;DHT22;5495;53.252;10.390;2022-09-25T11:08:24;14.80;99.90
10885;DHT22;5495;53.252;10.390;2022-09-25T11:10:56;14.80;99.90
10885;DHT22;5495;53.252;10.390;2022-09-25T11:13:26;14.80;99.90
10885;DHT22;5495;53.252;10.390;2022-09-25T11:15:57;14.80;99.90
10885;DHT22;5495;53.252;10.390;2022-09-25T11:18:35;14.80;99.90
10885;DHT22;5495;53.252;10.390;2022-09-25T11:21:04;14.80;99.90
10885;DHT22;5495;53.252;10.390;2022-09-25T11:23:38;14.80;99.90
10885;DHT22;5495;53.252;10.390;2022-09-25T11:26:11;14.70;99.90
10885;DHT22;5495;53.252;10.390;2022-09-25T11:28:45;14.70;99.90
10885;DHT22;5495;53.252;10.390;2022-09-25T11:31:25;14.70;99.90
10885;DHT22;5495;53.252;10.390;2022-09-25T11:34:00;14.70;99.90
10885;DHT22;5495;53.252;10.390;2022-09-25T11:36:43;14.70;99.90
10885;DHT22;5495;53.252;10.390;2022-09-25T11:39:19;14.70;99.90
10885;DHT22;5495;53.252;10.390;2022-09-25T11:42:13;14.60;99.90
10885;DHT22;5495;53.252;10.390;2022-09-25T11:44:46;14.70;99.90
10885;DHT22;5495;53.252;10.390;2022-09-25T11:47:40;14.60;99.90
10885;DHT22;5495;53.252;10.390;2022-09-25T11:50:12;14.60;99.90
10885;DHT22;5495;53.252;10.390;2022-09-25T11:52:49;14.50;99.90
10885;DHT22;5495;53.252;10.390;2022-09-25T11:55:47;14.60;99.90
10885;DHT22;5495;53.252;10.390;2022-09-25T11:58:37;14.50;99.90
10885;DHT22;5495;53.252;10.390;2022-09-25T12:01:18;14.50;99.90
10885;DHT22;5495;53.252;10.390;2022-09-25T12:07:01;14.60;99.90
10885;DHT22;5495;53.252;10.390;2022-09-25T12:09:59;14.60;99.90
10885;DHT22;5495;53.252;10.390;2022-09-25T12:12:36;14.60;99.90
10885;DHT22;5495;53.252;10.390;2022-09-25T12:15:13;14.60;99.90
10885;DHT22;5495;53.252;10.390;2022-09-25T12:17:48;14.60;99.90
10885;DHT22;5495;53.252;10.390;2022-09-25T12:20:24;14.60;99.90
10885;DHT22;5495;53.252;10.390;2022-09-25T12:23:07;14.60;99.90
10885;DHT22;5495;53.252;10.390;2022-09-25T12:25:56;14.50;99.90
10885;DHT22;5495;53.252;10.390;2022-09-25T12:28:38;14.50;99.90
10885;DHT22;5495;53.252;10.390;2022-09-25T12:31:14;14.50;99.90
10885;DHT22;5495;53.252;10.390;2022-09-25T12:33:50;14.40;99.90
10885;DHT22;5495;53.252;10.390;2022-09-25T12:36:24;13.30;99.90
10885;DHT22;5495;53.252;10.390;2022-09-25T12:39:07;14.40;99.90
10885;DHT22;5495;53.252;10.390;2022-09-25T12:41:48;14.50;99.90
10885;DHT22;5495;53.252;10.390;2022-09-25T12:44:24;14.50;99.90
10885;DHT22;5495;53.252;10.390;2022-09-25T12:47:01;14.50;99.90
10885;DHT22;5495;53.252;10.390;2022-09-25T12:49:34;14.60;99.90
10885;DHT22;5495;53.252;10.390;2022-09-25T12:52:13;14.50;99.90
10885;DHT22;5495;53.252;10.390;2022-09-25T12:54:48;14.60;99.90
10885;DHT22;5495;53.252;10.390;2022-09-25T12:57:24;14.50;99.90
10885;DHT22;5495;53.252;10.390;2022-09-25T12:59:57;14.50;99.90
10885;DHT22;5495;53.252;10.390;2022-09-25T13:02:32;14.60;99.90
10885;DHT22;5495;53.252;10.390;2022-09-25T13:05:08;14.60;99.90
10885;DHT22;5495;53.252;10.390;2022-09-25T13:07:41;14.50;99.90
10885;DHT22;5495;53.252;10.390;2022-09-25T13:10:22;14.50;99.90
10885;DHT22;5495;53.252;10.390;2022-09-25T13:12:53;14.50;99.90
10885;DHT22;5495;53.252;10.390;2022-09-25T13:15:24;14.50;99.90
10885;DHT22;5495;53.252;10.390;2022-09-25T13:17:57;14.60;99.90
10885;DHT22;5495;53.252;10.390;2022-09-25T13:20:50;14.60;99.90
10885;DHT22;5495;53.252;10.390;2022-09-25T13:23:36;14.50;99.90
10885;DHT22;5495;53.252;10.390;2022-09-25T13:26:10;14.60;99.90
10885;DHT22;5495;53.252;10.390;2022-09-25T13:28:39;14.60;99.90
10885;DHT22;5495;53.252;10.390;2022-09-25T13:31:12;14.60;99.90
10885;DHT22;5495;53.252;10.390;2022-09-25T13:33:51;14.80;99.90
10885;DHT22;5495;53.252;10.390;2022-09-25T13:36:38;14.90;99.90
10885;DHT22;5495;53.252;10.390;2022-09-25T13:39:18;15.10;99.90
10885;DHT22;5495;53.252;10.390;2022-09-25T13:42:11;15.50;99.90
10885;DHT22;5495;53.252;10.390;2022-09-25T13:44:57;15.70;99.90
10885;DHT22;5495;53.252;10.390;2022-09-25T13:47:57;15.70;99.90
10885;DHT22;5495;53.252;10.390;2022-09-25T13:50:41;15.90;99.90
10885;DHT22;5495;53.252;10.390;2022-09-25T13:53:20;15.80;99.90
10885;DHT22;5495;53.252;10.390;2022-09-25T13:59:19;15.70;99.90
10885;DHT22;5495;53.252;10.390;2022-09-25T14:01:50;15.90;99.90
10885;DHT22;5495;53.252;10.390;2022-09-25T14:04:31;16.00;99.90
10885;DHT22;5495;53.252;10.390;2022-09-25T14:07:10;15.90;99.90
10885;DHT22;5495;53.252;10.390;2022-09-25T14:09:47;15.70;99.90
10885;DHT22;5495;53.252;10.390;2022-09-25T14:12:28;15.50;99.90
10885;DHT22;5495;53.252;10.390;2022-09-25T14:15:06;15.40;99.90
10885;DHT22;5495;53.252;10.390;2022-09-25T14:17:41;15.30;99.90
10885;DHT22;5495;53.252;10.390;2022-09-25T14:20:33;15.10;99.90
10885;DHT22;5495;53.252;10.390;2022-09-25T14:23:05;15.00;99.90
10885;DHT22;5495;53.252;10.390;2022-09-25T14:25:35;14.90;99.90
10885;DHT22;5495;53.252;10.390;2022-09-25T14:28:18;14.90;99.90
10885;DHT22;5495;53.252;10.390;2022-09-25T14:31:01;14.80;99.90
10885;DHT22;5495;53.252;10.390;2022-09-25T14:33:48;14.80;99.90
10885;DHT22;5495;53.252;10.390;2022-09-25T14:36:26;14.80;99.90
10885;DHT22;5495;53.252;10.390;2022-09-25T14:39:20;14.80;99.90
10885;DHT22;5495;53.252;10.390;2022-09-25T14:45:05;14.80;99.90
10885;DHT22;5495;53.252;10.390;2022-09-25T14:47:36;14.70;99.90
10885;DHT22;5495;53.252;10.390;2022-09-25T14:50:05;14.70;99.90
10885;DHT22;5495;53.252;10.390;2022-09-25T14:52:40;14.60;99.90
10885;DHT22;5495;53.252;10.390;2022-09-25T14:55:15;14.60;99.90
10885;DHT22;5495;53.252;10.390;2022-09-25T14:57:46;14.60;99.90
10885;DHT22;5495;53.252;10.390;2022-09-25T15:00:16;14.60;99.90
10885;DHT22;5495;53.252;10.390;2022-09-25T15:02:47;14.60;99.90
10885;DHT22;5495;53.252;10.390;2022-09-25T15:05:18;14.70;99.90
10885;DHT22;5495;53.252;10.390;2022-09-25T15:08:20;14.70;99.90
10885;DHT22;5495;53.252;10.390;2022-09-25T15:11:08;17.00;99.90
10885;DHT22;5495;53.252;10.390;2022-09-25T15:13:39;15.30;99.90
10885;DHT22;5495;53.252;10.390;2022-09-25T15:16:12;15.00;99.90
10885;DHT22;5495;53.252;10.390;2022-09-25T15:18:58;15.00;99.90
10885;DHT22;5495;53.252;10.390;2022-09-25T15:21:29;15.00;99.90
10885;DHT22;5495;53.252;10.390;2022-09-25T15:24:01;14.90;99.90
10885;DHT22;5495;53.252;10.390;2022-09-25T15:26:30;14.80;99.90
10885;DHT22;5495;53.252;10.390;2022-09-25T15:28:58;14.80;99.90
10885;DHT22;5495;53.252;10.390;2022-09-25T15:31:25;14.70;99.90
10885;DHT22;5495;53.252;10.390;2022-09-25T15:34:07;14.70;99.90
10885;DHT22;5495;53.252;10.390;2022-09-25T15:36:36;14.70;99.90
10885;DHT22;5495;53.252;10.390;2022-09-25T15:39:12;14.60;99.90
10885;DHT22;5495;53.252;10.390;2022-09-25T15:41:46;14.50;99.90
10885;DHT22;5495;53.252;10.390;2022-09-25T15:44:17;14.50;99.90
10885;DHT22;5495;53.252;10.390;2022-09-25T15:46:47;14.40;99.90
10885;DHT22;5495;53.252;10.390;2022-09-25T15:49:17;14.30;99.90
10885;DHT22;5495;53.252;10.390;2022-09-25T15:51:50;14.40;99.90
10885;DHT22;5495;53.252;10.390;2022-09-25T15:54:33;14.30;99.90
10885;DHT22;5495;53.252;10.390;2022-09-25T15:57:03;14.20;99.90
10885;DHT22;5495;53.252;10.390;2022-09-25T15:59:34;14.10;99.90
10885;DHT22;5495;53.252;10.390;2022-09-25T16:02:22;14.10;99.90
10885;DHT22;5495;53.252;10.390;2022-09-25T16:05:09;14.00;99.90
10885;DHT22;5495;53.252;10.390;2022-09-25T16:07:46;14.00;99.90
10885;DHT22;5495;53.252;10.390;2022-09-25T16:10:31;14.00;99.90
10885;DHT22;5495;53.252;10.390;2022-09-25T16:12:59;13.90;99.90
10885;DHT22;5495;53.252;10.390;2022-09-25T16:15:44;13.90;99.90
10885;DHT22;5495;53.252;10.390;2022-09-25T16:21:18;13.90;99.90
10885;DHT22;5495;53.252;10.390;2022-09-25T16:23:54;13.80;99.90
10885;DHT22;5495;53.252;10.390;2022-09-25T16:26:30;13.70;99.90